createdAt,value
2023-06-20T00:00:41.386Z,100331.08
2023-06-20T00:03:30.315Z,100330.91
2023-06-20T00:05:58.096Z,100329.16
2023-06-20T00:08:25.906Z,100332.56
2023-06-20T00:10:53.699Z,100333.14
2023-06-20T00:13:21.731Z,100335.79
2023-06-20T00:15:49.679Z,100333.08
2023-06-20T00:18:18.926Z,100333.55
2023-06-20T00:20:47.499Z,100329.33
2023-06-20T00:23:15.318Z,100331.02
2023-06-20T00:25:43.188Z,100326.39
2023-06-20T00:28:13.735Z,100324.02
2023-06-20T00:30:41.516Z,100324.27
2023-06-20T00:33:10.172Z,100327.80
2023-06-20T00:35:38.486Z,100330.69
2023-06-20T00:38:07.943Z,100326.65
2023-06-20T00:40:35.736Z,100329.36
2023-06-20T00:43:05.175Z,100329.96
2023-06-20T00:45:34.556Z,100334.45
2023-06-20T00:48:07.802Z,100333.56
2023-06-20T00:50:36.351Z,100336.34
2023-06-20T00:53:06.961Z,100340.30
2023-06-20T00:55:37.022Z,100341.14
2023-06-20T00:58:05.968Z,100343.30
2023-06-20T01:00:35.594Z,100345.23
2023-06-20T01:03:07.914Z,100340.90
2023-06-20T01:05:38.225Z,100342.48
2023-06-20T01:08:22.505Z,100345.89
2023-06-20T01:10:58.858Z,100350.69
2023-06-20T01:13:41.504Z,100352.93
2023-06-20T01:16:28.010Z,100352.29
2023-06-20T01:19:07.564Z,100351.02
2023-06-20T01:21:43.203Z,100348.86
2023-06-20T01:24:18.859Z,100349.16
2023-06-20T01:26:59.032Z,100345.35
2023-06-20T01:29:34.320Z,100346.00
2023-06-20T01:32:07.576Z,100343.98
2023-06-20T01:34:40.696Z,100342.40
2023-06-20T01:37:14.693Z,100346.02
2023-06-20T01:39:48.510Z,100345.10
2023-06-20T01:42:21.127Z,100343.97
2023-06-20T01:44:51.283Z,100347.59
2023-06-20T01:47:20.596Z,100347.11
2023-06-20T01:49:52.794Z,100347.99
2023-06-20T01:52:22.123Z,100345.94
2023-06-20T01:54:52.006Z,100349.05
2023-06-20T01:57:21.645Z,100347.98
2023-06-20T01:59:51.245Z,100348.73
2023-06-20T02:02:20.967Z,100345.25
2023-06-20T02:04:50.432Z,100346.30
2023-06-20T02:07:19.036Z,100348.90
2023-06-20T02:09:47.592Z,100351.09
2023-06-20T02:12:17.485Z,100348.84
2023-06-20T02:14:49.282Z,100346.27
2023-06-20T02:17:19.499Z,100349.14
2023-06-20T02:19:47.699Z,100351.26
2023-06-20T02:22:18.428Z,100352.92
2023-06-20T02:24:49.123Z,100354.58
2023-06-20T02:27:20.558Z,100354.23
2023-06-20T02:29:48.968Z,100356.12
2023-06-20T02:32:18.527Z,100354.54
2023-06-20T02:34:48.987Z,100354.04
2023-06-20T02:37:16.912Z,100356.79
2023-06-20T02:39:44.617Z,100358.30
2023-06-20T02:42:12.476Z,100356.55
2023-06-20T02:44:40.301Z,100354.83
2023-06-20T02:47:40.567Z,100351.86
2023-06-20T02:50:24.957Z,100361.13
2023-06-20T02:53:02.038Z,100361.38
2023-06-20T02:55:56.445Z,100361.81
2023-06-20T02:58:27.455Z,100358.43
2023-06-20T03:00:58.494Z,100362.60
2023-06-20T03:03:34.338Z,100361.45
2023-06-20T03:06:02.931Z,100365.61
2023-06-20T03:08:31.591Z,100365.02
2023-06-20T03:11:00.142Z,100365.48
2023-06-20T03:13:28.797Z,100366.95
2023-06-20T03:15:56.664Z,100368.77
2023-06-20T03:18:26.017Z,100371.31
2023-06-20T03:20:54.229Z,100369.48
2023-06-20T03:23:22.101Z,100367.70
2023-06-20T03:25:49.804Z,100365.29
2023-06-20T03:28:17.586Z,100365.29
2023-06-20T03:30:45.580Z,100364.30
2023-06-20T03:33:13.475Z,100365.66
2023-06-20T03:35:41.346Z,100369.05
2023-06-20T03:38:09.146Z,100368.05
2023-06-20T03:40:37.075Z,100367.02
2023-06-20T03:43:04.834Z,100364.89
2023-06-20T03:45:33.085Z,100370.16
2023-06-20T03:48:00.986Z,100368.69
2023-06-20T03:50:28.811Z,100374.05
2023-06-20T03:52:56.509Z,100375.42
2023-06-20T03:55:24.789Z,100381.79
2023-06-20T03:57:52.952Z,100384.70
2023-06-20T04:00:21.374Z,100384.58
2023-06-20T04:02:49.579Z,100384.09
2023-06-20T04:05:20.045Z,100380.56
2023-06-20T04:07:48.249Z,100376.45
2023-06-20T04:10:16.163Z,100381.27
2023-06-20T04:12:44.271Z,100382.67
2023-06-20T04:15:12.139Z,100383.63
2023-06-20T04:17:42.356Z,100385.34
2023-06-20T04:20:14.488Z,100390.67
2023-06-20T04:22:46.255Z,100390.14
2023-06-20T04:25:15.690Z,100394.14
2023-06-20T04:27:43.737Z,100395.60
2023-06-20T04:30:11.970Z,100399.83
2023-06-20T04:32:40.577Z,100397.58
2023-06-20T04:35:11.906Z,100394.63
2023-06-20T04:37:42.834Z,100391.98
2023-06-20T04:40:12.602Z,100388.34
2023-06-20T04:42:40.449Z,100395.13
2023-06-20T04:45:10.287Z,100391.34
2023-06-20T04:47:38.521Z,100397.23
2023-06-20T04:50:10.442Z,100400.24
2023-06-20T04:52:38.399Z,100402.77
2023-06-20T04:55:06.717Z,100402.29
2023-06-20T04:57:35.187Z,100400.88
2023-06-20T05:00:15.945Z,100404.35
2023-06-20T05:02:43.858Z,100402.80
2023-06-20T05:05:12.288Z,100401.71
2023-06-20T05:07:43.567Z,100401.36
2023-06-20T05:10:11.422Z,100404.23
2023-06-20T05:12:39.196Z,100405.48
2023-06-20T05:15:09.176Z,100409.92
2023-06-20T05:17:37.064Z,100405.34
2023-06-20T05:20:07.573Z,100404.67
2023-06-20T05:22:36.062Z,100406.97
2023-06-20T05:25:04.104Z,100409.45
2023-06-20T05:27:33.616Z,100409.40
2023-06-20T05:30:01.619Z,100409.77
2023-06-20T05:32:31.447Z,100407.33
2023-06-20T05:35:00.421Z,100409.42
2023-06-20T05:37:32.137Z,100412.06
2023-06-20T05:40:01.728Z,100410.27
2023-06-20T05:42:33.031Z,100409.61
2023-06-20T05:45:01.025Z,100409.95
2023-06-20T05:47:29.808Z,100414.47
2023-06-20T05:49:58.627Z,100415.93
2023-06-20T05:52:26.552Z,100417.11
2023-06-20T05:54:54.978Z,100415.83
2023-06-20T05:57:22.981Z,100418.05
2023-06-20T05:59:51.267Z,100426.95
2023-06-20T06:02:20.662Z,100423.38
2023-06-20T06:04:49.315Z,100426.52
2023-06-20T06:07:17.240Z,100427.72
2023-06-20T06:09:47.798Z,100430.97
2023-06-20T06:12:16.068Z,100428.79
2023-06-20T06:14:43.856Z,100431.23
2023-06-20T06:17:11.654Z,100431.71
2023-06-20T06:19:39.543Z,100432.38
2023-06-20T06:22:07.576Z,100428.80
2023-06-20T06:24:35.549Z,100428.52
2023-06-20T06:27:05.302Z,100429.33
2023-06-20T06:29:33.088Z,100431.50
2023-06-20T06:32:01.464Z,100432.15
2023-06-20T06:34:29.701Z,100437.19
2023-06-20T06:36:57.748Z,100437.38
2023-06-20T06:39:26.498Z,100438.64
2023-06-20T06:41:54.884Z,100432.70
2023-06-20T06:44:22.742Z,100437.35
2023-06-20T06:46:50.679Z,100435.33
2023-06-20T06:49:18.569Z,100437.64
2023-06-20T06:51:48.277Z,100438.36
2023-06-20T06:54:16.994Z,100440.52
2023-06-20T06:56:44.721Z,100438.47
2023-06-20T06:59:12.461Z,100441.27
2023-06-20T07:01:40.549Z,100441.96
2023-06-20T07:04:08.441Z,100445.90
2023-06-20T07:06:36.224Z,100444.71
2023-06-20T07:09:04.019Z,100445.98
2023-06-20T07:11:31.953Z,100440.88
2023-06-20T07:13:59.882Z,100443.77
2023-06-20T07:16:27.763Z,100441.20
2023-06-20T07:18:55.660Z,100441.88
2023-06-20T07:21:23.440Z,100442.90
2023-06-20T07:23:51.154Z,100441.91
2023-06-20T07:26:18.925Z,100443.92
2023-06-20T07:28:46.854Z,100443.68
2023-06-20T07:33:09.373Z,100450.52
2023-06-20T07:35:35.862Z,100450.67
2023-06-20T07:38:02.261Z,100456.52
2023-06-20T07:40:28.707Z,100458.39
2023-06-20T07:42:56.461Z,100460.98
2023-06-20T07:45:22.980Z,100463.30
2023-06-20T07:47:49.504Z,100465.41
2023-06-20T07:50:16.089Z,100467.30
2023-06-20T07:52:43.329Z,100472.58
2023-06-20T07:55:20.367Z,100473.73
2023-06-20T07:57:54.385Z,100474.56
2023-06-20T08:00:21.815Z,100476.04
2023-06-20T08:02:48.175Z,100475.59
2023-06-20T08:05:14.597Z,100474.37
2023-06-20T08:07:41.911Z,100482.81
2023-06-20T08:10:10.817Z,100485.64
2023-06-20T08:12:38.119Z,100487.20
2023-06-20T08:15:06.262Z,100485.69
2023-06-20T08:17:50.571Z,100488.77
2023-06-20T08:20:18.358Z,100485.86
2023-06-20T08:22:46.082Z,100482.92
2023-06-20T08:25:13.887Z,100480.23
2023-06-20T08:27:41.665Z,100481.05
2023-06-20T08:40:32.103Z,100486.41
2023-06-20T08:42:59.982Z,100484.30
2023-06-20T08:45:30.773Z,100487.71
2023-06-20T08:48:00.592Z,100486.82
2023-06-20T08:50:31.609Z,100484.89
2023-06-20T08:53:05.667Z,100485.89
2023-06-20T08:55:36.031Z,100489.00
2023-06-20T08:58:07.889Z,100490.85
2023-06-20T09:00:35.725Z,100489.23
2023-06-20T09:03:04.258Z,100483.69
2023-06-20T09:05:33.639Z,100485.55
2023-06-20T09:08:01.681Z,100484.09
2023-06-20T09:10:29.827Z,100477.58
2023-06-20T09:12:58.192Z,100477.85
2023-06-20T09:15:28.063Z,100480.97
2023-06-20T09:17:59.498Z,100482.62
2023-06-20T09:20:29.689Z,100477.30
2023-06-20T09:22:59.121Z,100477.17
2023-06-20T09:25:30.161Z,100472.06
2023-06-20T09:27:58.829Z,100477.29
2023-06-20T09:30:31.924Z,100475.27
2023-06-20T09:33:07.148Z,100471.90
2023-06-20T09:35:35.143Z,100468.42
2023-06-20T09:38:05.598Z,100465.25
2023-06-20T09:40:45.816Z,100470.10
2023-06-20T09:43:14.056Z,100469.91
2023-06-20T09:45:41.875Z,100472.67
2023-06-20T09:48:10.692Z,100474.65
2023-06-20T09:50:40.012Z,100477.52
2023-06-20T09:53:23.436Z,100483.81
2023-06-20T09:55:52.893Z,100483.27
2023-06-20T09:58:22.862Z,100485.59
2023-06-20T10:00:51.262Z,100484.34
2023-06-20T10:03:19.937Z,100487.64
2023-06-20T10:05:48.368Z,100491.37
2023-06-20T10:08:17.600Z,100489.78
2023-06-20T10:10:45.342Z,100480.37
2023-06-20T10:13:14.156Z,100479.30
2023-06-20T10:15:41.912Z,100477.23
2023-06-20T10:18:37.574Z,100477.06
2023-06-20T10:21:07.477Z,100472.13
2023-06-20T10:23:38.349Z,100474.76
2023-06-20T10:26:09.493Z,100475.77
2023-06-20T10:28:40.067Z,100474.41
2023-06-20T10:31:08.281Z,100471.69
2023-06-20T10:33:38.292Z,100474.55
2023-06-20T10:36:11.208Z,100474.33
2023-06-20T10:39:00.566Z,100470.73
2023-06-20T10:41:29.899Z,100472.40
2023-06-20T10:44:00.256Z,100471.73
2023-06-20T10:46:43.282Z,100472.27
2023-06-20T10:49:11.816Z,100473.73
2023-06-20T10:51:47.210Z,100474.00
2023-06-20T10:54:17.117Z,100469.92
2023-06-20T10:56:45.402Z,100464.25
2023-06-20T10:59:15.190Z,100462.98
2023-06-20T11:01:44.782Z,100461.02
2023-06-20T11:04:14.556Z,100455.38
2023-06-20T11:06:43.492Z,100454.36
2023-06-20T11:09:22.323Z,100453.48
2023-06-20T11:11:52.267Z,100449.70
2023-06-20T11:14:22.015Z,100448.00
2023-06-20T11:16:52.243Z,100447.70
2023-06-20T11:21:55.566Z,100446.38
2023-06-20T11:24:23.502Z,100443.10
2023-06-20T11:26:52.020Z,100442.91
2023-06-20T11:29:19.835Z,100440.25
2023-06-20T11:31:47.625Z,100435.70
2023-06-20T11:34:18.246Z,100432.75
2023-06-20T11:36:46.088Z,100430.58
2023-06-20T11:39:15.413Z,100423.77
2023-06-20T11:41:43.238Z,100421.96
2023-06-20T11:44:26.204Z,100422.77
2023-06-20T11:46:58.121Z,100423.91
2023-06-20T11:49:33.138Z,100424.05
2023-06-20T11:52:01.225Z,100420.69
2023-06-20T11:54:29.183Z,100418.40
2023-06-20T11:56:57.311Z,100415.58
2023-06-20T11:59:25.889Z,100416.49
2023-06-20T12:01:54.195Z,100424.88
2023-06-20T12:04:23.325Z,100420.02
2023-06-20T12:07:04.610Z,100422.94
2023-06-20T12:09:41.975Z,100426.34
2023-06-20T12:12:10.815Z,100426.79
2023-06-20T12:14:39.064Z,100428.20
2023-06-20T12:17:06.966Z,100429.59
2023-06-20T12:19:36.216Z,100425.70
2023-06-20T12:22:04.366Z,100422.85
2023-06-20T12:24:32.208Z,100423.84
2023-06-20T12:27:00.067Z,100417.11
2023-06-20T12:29:27.925Z,100412.66
2023-06-20T12:31:55.675Z,100412.75
2023-06-20T12:34:23.433Z,100415.42
2023-06-20T12:36:52.768Z,100411.64
2023-06-20T12:39:20.638Z,100411.96
2023-06-20T12:41:48.679Z,100409.27
2023-06-20T12:44:16.489Z,100413.77
2023-06-20T12:46:44.303Z,100411.13
2023-06-20T12:49:12.066Z,100415.70
2023-06-20T12:51:40.030Z,100415.53
2023-06-20T12:54:07.784Z,100408.30
2023-06-20T12:56:36.032Z,100407.57
2023-06-20T12:59:05.485Z,100405.02
2023-06-20T13:01:33.469Z,100403.42
2023-06-20T13:04:01.369Z,100403.11
2023-06-20T13:06:29.144Z,100401.48
2023-06-20T13:08:56.886Z,100398.60
2023-06-20T13:11:24.639Z,100394.02
2023-06-20T13:13:52.396Z,100394.61
2023-06-20T13:16:20.312Z,100396.80
2023-06-20T13:18:48.312Z,100388.92
2023-06-20T13:21:16.071Z,100382.56
2023-06-20T13:23:53.073Z,100382.15
2023-06-20T13:26:31.949Z,100376.55
2023-06-20T13:29:00.145Z,100372.01
2023-06-20T13:31:28.040Z,100371.23
2023-06-20T13:33:55.868Z,100374.54
2023-06-20T13:36:23.721Z,100373.23
2023-06-20T13:38:51.656Z,100373.78
2023-06-20T13:41:19.682Z,100374.33
2023-06-20T13:43:47.486Z,100375.26
2023-06-20T13:46:15.273Z,100380.19
2023-06-20T13:48:43.080Z,100377.71
2023-06-20T13:51:10.875Z,100380.77
2023-06-20T13:53:38.614Z,100379.60
2023-06-20T13:56:06.610Z,100373.25
2023-06-20T13:58:34.575Z,100373.81
2023-06-20T14:01:02.285Z,100373.11
2023-06-20T14:03:30.103Z,100374.75
2023-06-20T14:05:59.200Z,100376.85
2023-06-20T14:08:27.511Z,100373.26
2023-06-20T14:10:55.410Z,100371.66
2023-06-20T14:13:24.213Z,100366.52
2023-06-20T14:15:57.435Z,100367.44
2023-06-20T14:18:27.329Z,100368.80
2023-06-20T14:20:55.803Z,100369.19
2023-06-20T14:23:26.206Z,100369.97
2023-06-20T14:26:08.834Z,100372.92
2023-06-20T14:28:39.755Z,100371.94
2023-06-20T14:31:13.530Z,100366.16
2023-06-20T14:33:42.281Z,100366.33
2023-06-20T14:36:31.899Z,100358.69
2023-06-20T14:38:59.641Z,100355.06
2023-06-20T14:41:29.092Z,100353.70
2023-06-20T14:43:57.080Z,100349.09
2023-06-20T14:46:24.966Z,100349.96
2023-06-20T14:48:53.290Z,100345.96
2023-06-20T14:51:25.124Z,100346.54
2023-06-20T14:53:54.388Z,100345.98
2023-06-20T14:56:22.259Z,100344.51
2023-06-20T14:58:50.117Z,100343.16
2023-06-20T15:01:17.956Z,100342.29
2023-06-20T15:03:45.807Z,100335.89
2023-06-20T15:06:13.854Z,100340.09
2023-06-20T15:08:41.620Z,100340.12
2023-06-20T15:11:09.481Z,100338.37
2023-06-20T15:13:37.239Z,100337.90
2023-06-20T15:16:05.220Z,100335.23
2023-06-20T15:18:33.469Z,100338.75
2023-06-20T15:21:01.212Z,100332.05
2023-06-20T15:23:29.093Z,100335.15
2023-06-20T15:25:56.985Z,100333.75
2023-06-20T15:28:24.976Z,100329.58
2023-06-20T15:30:52.785Z,100333.55
2023-06-20T15:33:20.546Z,100329.09
2023-06-20T15:35:48.337Z,100321.71
2023-06-20T15:38:16.065Z,100322.37
2023-06-20T15:40:44.104Z,100319.39
2023-06-20T15:43:12.210Z,100314.83
2023-06-20T15:45:40.889Z,100314.19
2023-06-20T15:48:10.453Z,100313.39
2023-06-20T15:50:38.257Z,100314.33
2023-06-20T15:53:06.978Z,100313.98
2023-06-20T15:55:35.273Z,100312.73
2023-06-20T15:58:03.903Z,100319.11
2023-06-20T16:00:31.822Z,100309.98
2023-06-20T16:03:00.591Z,100314.90
2023-06-20T16:05:29.539Z,100313.56
2023-06-20T16:07:58.718Z,100313.66
2023-06-20T16:10:26.920Z,100315.60
2023-06-20T16:12:55.301Z,100311.61
2023-06-20T16:15:23.354Z,100310.27
2023-06-20T16:17:51.278Z,100307.27
2023-06-20T16:20:19.187Z,100310.34
2023-06-20T16:22:46.952Z,100312.14
2023-06-20T16:25:14.808Z,100313.45
2023-06-20T16:27:42.676Z,100315.64
2023-06-20T16:30:11.277Z,100313.73
2023-06-20T16:32:41.444Z,100316.83
2023-06-20T16:35:09.688Z,100317.25
2023-06-20T16:44:41.988Z,100314.79
2023-06-20T16:47:09.563Z,100315.56
2023-06-20T16:49:36.729Z,100317.52
2023-06-20T16:52:03.541Z,100319.27
2023-06-20T16:54:30.291Z,100317.86
2023-06-20T16:56:56.688Z,100316.46
2023-06-20T16:59:23.151Z,100314.64
2023-06-20T17:01:49.601Z,100316.09
2023-06-20T17:04:15.977Z,100316.66
2023-06-20T17:06:42.430Z,100317.69
2023-06-20T17:09:09.366Z,100316.63
2023-06-20T17:11:36.006Z,100315.16
2023-06-20T17:14:05.406Z,100310.41
2023-06-20T17:16:31.737Z,100314.05
2023-06-20T17:18:59.997Z,100309.55
2023-06-20T17:21:26.535Z,100307.52
2023-06-20T17:24:04.036Z,100310.66
2023-06-20T17:26:31.098Z,100305.52
2023-06-20T17:28:59.937Z,100303.95
2023-06-20T17:31:28.593Z,100304.10
2023-06-20T17:33:55.937Z,100305.09
2023-06-20T17:36:23.387Z,100303.45
2023-06-20T17:38:53.430Z,100304.63
2023-06-20T17:41:20.449Z,100306.74
2023-06-20T17:43:50.271Z,100306.59
2023-06-20T17:46:18.668Z,100304.46
2023-06-20T17:48:45.069Z,100301.81
2023-06-20T17:51:11.733Z,100302.25
2023-06-20T17:53:39.920Z,100299.49
2023-06-20T17:56:06.808Z,100294.85
2023-06-20T17:58:34.288Z,100297.98
2023-06-20T18:01:02.738Z,100294.04
2023-06-20T18:03:29.368Z,100296.81
2023-06-20T18:05:56.653Z,100292.28
2023-06-20T18:08:24.312Z,100293.79
2023-06-20T18:10:55.790Z,100292.65
2023-06-20T18:13:22.235Z,100293.29
2023-06-20T18:15:50.213Z,100296.30
2023-06-20T18:18:16.540Z,100297.98
2023-06-20T18:20:43.566Z,100301.70
2023-06-20T18:23:13.896Z,100297.32
2023-06-20T18:25:43.751Z,100295.98
2023-06-20T18:28:10.842Z,100293.77
2023-06-20T18:30:39.124Z,100295.67
2023-06-20T18:33:08.273Z,100292.73
2023-06-20T18:35:39.969Z,100296.06
2023-06-20T18:38:07.946Z,100294.90
2023-06-20T18:40:34.342Z,100295.99
2023-06-20T18:43:04.271Z,100299.47
2023-06-20T18:45:34.240Z,100299.63
2023-06-20T18:48:01.632Z,100304.78
2023-06-20T18:50:29.284Z,100302.69
2023-06-20T18:52:58.028Z,100307.85
2023-06-20T18:55:24.485Z,100309.13
2023-06-20T18:57:51.195Z,100312.06
2023-06-20T19:00:17.873Z,100315.88
2023-06-20T19:02:45.372Z,100312.42
2023-06-20T19:05:12.266Z,100315.44
2023-06-20T19:07:38.672Z,100312.80
2023-06-20T19:10:11.376Z,100314.77
2023-06-20T19:12:39.030Z,100314.42
2023-06-20T19:15:06.296Z,100323.20
2023-06-20T19:17:32.849Z,100319.15
2023-06-20T19:20:57.894Z,100323.56
2023-06-20T19:23:26.187Z,100326.41
2023-06-20T19:25:55.757Z,100325.23
2023-06-20T19:28:23.660Z,100328.05
2023-06-20T19:30:54.565Z,100328.17
2023-06-20T19:33:22.515Z,100327.31
2023-06-20T19:35:50.374Z,100328.89
2023-06-20T19:38:22.549Z,100326.57
2023-06-20T19:40:51.289Z,100327.30
2023-06-20T19:43:19.491Z,100330.27
2023-06-20T19:45:47.675Z,100329.32
2023-06-20T19:48:17.220Z,100329.52
2023-06-20T19:50:45.220Z,100331.77
2023-06-20T19:53:13.087Z,100328.81
2023-06-20T19:55:41.232Z,100329.55
2023-06-20T19:58:09.184Z,100328.80
2023-06-20T20:00:37.040Z,100323.27
2023-06-20T20:03:08.314Z,100326.91
2023-06-20T20:05:38.399Z,100324.91
2023-06-20T20:08:07.194Z,100322.83
2023-06-20T20:10:35.238Z,100328.02
2023-06-20T20:13:03.383Z,100332.33
2023-06-20T20:16:48.395Z,100332.11
2023-06-20T20:19:18.334Z,100329.14
2023-06-20T20:21:47.228Z,100328.80
2023-06-20T20:24:15.931Z,100328.89
2023-06-20T20:26:43.895Z,100323.82
2023-06-20T20:29:11.961Z,100324.90
2023-06-20T20:31:39.893Z,100317.95
2023-06-20T20:34:08.111Z,100319.06
2023-06-20T20:36:36.120Z,100320.78
2023-06-20T20:39:04.905Z,100322.63
2023-06-20T20:41:33.106Z,100323.35
2023-06-20T20:44:00.954Z,100324.34
2023-06-20T20:46:29.071Z,100325.72
2023-06-20T20:48:57.780Z,100328.96
2023-06-20T20:51:25.820Z,100325.42
2023-06-20T20:53:53.755Z,100326.56
2023-06-20T20:56:21.821Z,100325.52
2023-06-20T20:58:49.731Z,100324.52
2023-06-20T21:01:17.671Z,100327.55
2023-06-20T21:03:46.465Z,100327.08
2023-06-20T21:06:14.994Z,100328.20
2023-06-20T21:08:43.106Z,100328.59
2023-06-20T21:11:10.976Z,100329.83
2023-06-20T21:13:39.144Z,100332.77
2023-06-20T21:16:09.424Z,100331.38
2023-06-20T21:18:37.320Z,100332.98
2023-06-20T21:21:05.247Z,100330.41
2023-06-20T21:23:33.291Z,100334.46
2023-06-20T21:26:01.231Z,100337.58
2023-06-20T21:28:29.125Z,100335.84
2023-06-20T21:30:57.082Z,100333.66
2023-06-20T21:33:24.899Z,100336.58
2023-06-20T21:35:52.665Z,100339.11
2023-06-20T21:38:20.781Z,100335.70
2023-06-20T21:40:50.492Z,100331.18
2023-06-20T21:43:18.475Z,100335.12
2023-06-20T21:45:46.332Z,100335.51
2023-06-20T21:48:14.431Z,100334.16
2023-06-20T21:50:42.318Z,100339.30
2023-06-20T21:53:12.517Z,100339.77
2023-06-20T21:55:41.262Z,100338.55
2023-06-20T21:58:09.663Z,100339.14
2023-06-20T22:00:37.669Z,100337.26
2023-06-20T22:03:05.676Z,100338.55
2023-06-20T22:05:33.774Z,100340.83
2023-06-20T22:08:02.498Z,100339.33
2023-06-20T22:10:59.184Z,100336.52
2023-06-20T22:13:45.562Z,100340.06
2023-06-20T22:16:13.299Z,100341.30
2023-06-20T22:18:41.210Z,100340.34
2023-06-20T22:22:14.842Z,100342.62
2023-06-20T22:24:42.557Z,100343.52
2023-06-20T22:27:12.035Z,100339.05
2023-06-20T22:29:40.486Z,100340.33
2023-06-20T22:32:09.086Z,100339.37
2023-06-20T22:34:37.047Z,100342.84
2023-06-20T22:37:05.024Z,100340.69
2023-06-20T22:39:33.272Z,100341.90
2023-06-20T22:42:04.105Z,100339.17
2023-06-20T22:44:32.024Z,100339.24
2023-06-20T22:47:01.969Z,100339.42
2023-06-20T22:49:29.826Z,100343.38
2023-06-20T22:51:57.940Z,100345.98
2023-06-20T22:54:26.170Z,100342.92
2023-06-20T22:56:54.089Z,100345.48
2023-06-20T22:59:22.092Z,100343.08
2023-06-20T23:01:50.056Z,100346.17
2023-06-20T23:04:17.878Z,100348.23
2023-06-20T23:06:45.890Z,100349.39
2023-06-20T23:09:13.680Z,100350.36
2023-06-20T23:11:41.451Z,100349.85
2023-06-20T23:14:09.329Z,100345.32
2023-06-20T23:16:37.499Z,100343.54
2023-06-20T23:19:05.241Z,100342.98
2023-06-20T23:21:33.026Z,100343.33
2023-06-20T23:24:05.019Z,100340.89
2023-06-20T23:26:36.957Z,100339.21
2023-06-20T23:29:05.968Z,100337.84
2023-06-20T23:31:33.977Z,100340.04
2023-06-20T23:34:01.993Z,100336.95
2023-06-20T23:36:29.784Z,100342.15
2023-06-20T23:38:57.981Z,100342.21
2023-06-20T23:41:26.037Z,100343.45
2023-06-20T23:43:54.737Z,100344.08
2023-06-20T23:46:22.528Z,100339.59
2023-06-20T23:48:50.473Z,100343.55
2023-06-20T23:51:18.590Z,100342.39
2023-06-20T23:53:46.858Z,100343.55
2023-06-20T23:56:14.685Z,100342.86
2023-06-20T23:58:42.493Z,100346.28
